Time;durP1;ratioP1;P1;durP2;ratioP2;P2;SDS_P1;SDS_P2;PMS_P1;PMS_P2;Temp;Humidity;BMP_temperature;BMP_pressure;BME280_temperature;BME280_humidity;BME280_pressure;Samples;Min_cycle;Max_cycle;Signal;HPM_P1;HPM_P2
2021/12/12 00:04:13;;;;;;;81.40;33.33;;;;;;;0.24;100.00;101253.47;10456264;28;20227;-66
2021/12/12 00:09:19;;;;;;;78.83;33.53;;;;;;;0.16;100.00;101257.34;10456354;28;20712;-64
2021/12/12 00:14:27;;;;;;;78.37;33.43;;;;;;;0.02;100.00;101260.97;10455668;28;20561;-65
2021/12/12 00:19:32;;;;;;;75.60;31.43;;;;;;;0.09;100.00;101255.34;10455927;28;20216;-67
2021/12/12 00:24:36;;;;;;;67.63;29.80;;;;;;;0.27;100.00;101257.03;10455592;28;20228;-64
2021/12/12 00:29:40;;;;;;;75.33;30.90;;;;;;;0.30;100.00;101264.84;10455731;28;20685;-64
2021/12/12 00:34:48;;;;;;;72.43;31.20;;;;;;;0.07;100.00;101262.06;10455397;28;20550;-66
2021/12/12 00:39:55;;;;;;;78.97;34.10;;;;;;;0.02;100.00;101266.06;10482068;28;20220;-66
2021/12/12 00:45:01;;;;;;;71.07;30.27;;;;;;;-0.15;100.00;101267.81;10496653;28;20232;-63
2021/12/12 00:50:10;;;;;;;69.77;30.97;;;;;;;-0.19;100.00;101271.91;10496597;28;20250;-63
2021/12/12 00:55:14;;;;;;;71.93;31.13;;;;;;;-0.20;100.00;101275.25;10496848;28;20222;-66
2021/12/12 01:00:22;;;;;;;63.17;28.27;;;;;;;-0.31;100.00;101284.06;10495739;28;20319;-64
2021/12/12 01:05:28;;;;;;;57.03;24.97;;;;;;;-0.18;100.00;101283.88;10496213;28;20211;-66
2021/12/12 01:10:35;;;;;;;55.67;24.33;;;;;;;-0.18;100.00;101293.19;10496581;28;20238;-67
2021/12/12 01:15:41;;;;;;;57.17;24.00;;;;;;;-0.26;100.00;101292.81;10496411;28;20226;-68
2021/12/12 01:20:51;;;;;;;56.70;23.47;;;;;;;-0.29;100.00;101290.13;10496305;28;20216;-66
2021/12/12 01:25:56;;;;;;;55.33;23.87;;;;;;;-0.29;100.00;101286.69;10496056;28;20679;-63
2021/12/12 01:31:04;;;;;;;56.13;24.77;;;;;;;-0.37;100.00;101281.25;10495820;28;20238;-65
2021/12/12 01:36:21;;;;;;;53.70;22.57;;;;;;;-0.45;100.00;101281.69;10496216;28;20222;-65
2021/12/12 01:41:29;;;;;;;53.20;22.10;;;;;;;-0.60;100.00;101284.34;10456139;28;20747;-67
2021/12/12 01:46:36;;;;;;;48.20;21.47;;;;;;;-0.69;100.00;101272.84;10454103;28;20323;-64
2021/12/12 01:51:42;;;;;;;45.00;21.83;;;;;;;-0.70;100.00;101279.59;10453864;28;20224;-67
2021/12/12 01:56:53;;;;;;;56.33;23.27;;;;;;;-0.52;100.00;101289.81;10111666;28;10000213;-68
2021/12/12 02:02:00;;;;;;;48.50;22.47;;;;;;;-0.55;100.00;101282.88;10462779;28;20212;-64
2021/12/12 02:07:09;;;;;;;56.73;23.73;;;;;;;-0.60;100.00;101286.88;10463193;28;20299;-67
2021/12/12 02:12:13;;;;;;;60.77;23.03;;;;;;;-0.55;100.00;101282.03;10462523;28;20239;-65
2021/12/12 02:17:24;;;;;;;50.93;22.73;;;;;;;-0.62;100.00;101288.47;10462801;28;20220;-68
2021/12/12 02:22:44;;;;;;;57.57;23.00;;;;;;;-0.71;100.00;101297.38;10463034;28;20231;-64
2021/12/12 02:38:34;;;;;;;65.80;26.23;;;;;;;-0.60;100.00;101304.72;10462510;28;20217;-64
2021/12/12 02:43:41;;;;;;;54.77;24.80;;;;;;;-0.61;100.00;101308.09;10462548;28;20239;-64
2021/12/12 02:48:48;;;;;;;54.30;25.23;;;;;;;-0.59;100.00;101305.63;10461688;28;20244;-64
2021/12/12 02:53:55;;;;;;;63.60;26.70;;;;;;;-0.59;100.00;101315.81;10461997;28;20217;-63
2021/12/12 02:59:00;;;;;;;53.03;22.60;;;;;;;-0.57;100.00;101322.72;10461457;28;20248;-65
2021/12/12 03:04:05;;;;;;;54.90;24.23;;;;;;;-0.68;100.00;101328.97;10461808;28;20209;-66
2021/12/12 03:09:13;;;;;;;50.33;22.77;;;;;;;-0.66;100.00;101332.47;10461321;28;20220;-65
2021/12/12 03:14:17;;;;;;;54.90;22.33;;;;;;;-0.64;100.00;101325.75;10461452;28;20658;-65
2021/12/12 03:19:20;;;;;;;58.47;22.70;;;;;;;-0.88;100.00;101324.53;10460844;28;20304;-62
2021/12/12 03:24:28;;;;;;;59.17;24.07;;;;;;;-0.93;100.00;101331.06;10460939;28;20217;-67
2021/12/12 03:29:31;;;;;;;64.90;24.70;;;;;;;-1.04;100.00;101326.22;10460656;28;20561;-65
2021/12/12 03:34:37;;;;;;;54.27;22.93;;;;;;;-0.94;100.00;101338.63;10460477;28;20216;-69
2021/12/12 03:39:44;;;;;;;68.53;24.73;;;;;;;-0.91;100.00;101344.75;10460093;28;20231;-63
2021/12/12 03:44:49;;;;;;;63.90;23.53;;;;;;;-1.05;100.00;101339.78;10459503;28;20251;-67
2021/12/12 03:49:52;;;;;;;61.83;20.90;;;;;;;-0.98;100.00;101355.44;10460157;28;20243;-64
2021/12/12 03:55:00;;;;;;;48.23;21.37;;;;;;;-0.89;100.00;101347.38;10459832;28;20220;-71
2021/12/12 04:00:08;;;;;;;56.33;22.13;;;;;;;-0.72;100.00;101350.00;10459219;28;20658;-70
2021/12/12 04:05:11;;;;;;;60.30;23.00;;;;;;;-0.83;100.00;101355.34;10459112;28;20554;-64
2021/12/12 04:10:20;;;;;;;49.63;21.57;;;;;;;-0.70;100.00;101365.34;10459091;28;20225;-63
2021/12/12 04:15:24;;;;;;;49.50;20.33;;;;;;;-0.71;100.00;101369.59;10458918;28;20217;-67
2021/12/12 04:20:30;;;;;;;51.17;20.00;;;;;;;-0.73;100.00;101368.66;10458761;28;20220;-64
2021/12/12 04:25:35;;;;;;;50.37;20.23;;;;;;;-0.70;100.00;101378.97;10458787;28;20217;-68
2021/12/12 04:30:39;;;;;;;47.03;21.30;;;;;;;-0.68;100.00;101390.13;10458081;28;20224;-67
2021/12/12 04:35:42;;;;;;;50.37;20.80;;;;;;;-0.67;100.00;101391.00;10458569;28;20692;-62
2021/12/12 04:40:47;;;;;;;59.73;20.67;;;;;;;-0.59;100.00;101387.19;10458349;28;20259;-64
2021/12/12 04:46:04;;;;;;;52.17;21.63;;;;;;;-0.65;100.00;101404.69;10457727;28;20565;-66
2021/12/12 04:51:14;;;;;;;51.90;21.93;;;;;;;-0.57;100.00;101418.72;10458078;28;20234;-66
2021/12/12 04:56:23;;;;;;;53.27;22.20;;;;;;;-0.70;100.00;101422.31;10458146;28;20213;-65
2021/12/12 05:01:31;;;;;;;52.27;21.37;;;;;;;-0.61;100.00;101422.78;10457753;28;20544;-69
2021/12/12 05:06:40;;;;;;;45.70;20.93;;;;;;;-0.60;100.00;101423.63;10457700;28;20297;-67
2021/12/12 05:11:51;;;;;;;53.43;21.80;;;;;;;-0.49;100.00;101425.97;10457587;28;20220;-66
2021/12/12 05:17:14;;;;;;;49.87;20.43;;;;;;;-0.41;100.00;101441.63;10457466;28;20216;-68
2021/12/12 05:22:20;;;;;;;55.97;22.00;;;;;;;-0.42;100.00;101444.97;10457504;28;20546;-66
2021/12/12 05:27:27;;;;;;;46.63;19.87;;;;;;;-0.35;100.00;101463.22;10458074;28;20220;-64
2021/12/12 05:32:34;;;;;;;47.37;18.63;;;;;;;-0.45;100.00;101460.13;10464887;28;20228;-66
2021/12/12 05:37:38;;;;;;;43.57;17.27;;;;;;;-0.58;100.00;101445.88;10464873;28;20654;-65
2021/12/12 05:42:44;;;;;;;47.80;18.57;;;;;;;-0.57;100.00;101442.50;10465381;28;20221;-65
2021/12/12 05:47:48;;;;;;;35.77;17.80;;;;;;;-0.40;100.00;101457.00;10464732;28;20241;-64
2021/12/12 05:52:54;;;;;;;40.83;18.03;;;;;;;-0.39;100.00;101461.31;10464599;28;20229;-63
2021/12/12 05:58:01;;;;;;;44.07;17.27;;;;;;;-0.44;100.00;101461.88;10464332;28;20220;-65
2021/12/12 06:03:08;;;;;;;42.50;19.33;;;;;;;-0.47;100.00;101465.16;10464128;28;20289;-64
2021/12/12 06:08:12;;;;;;;40.47;17.30;;;;;;;-0.35;100.00;101460.69;10463864;28;20520;-66
2021/12/12 06:13:19;;;;;;;36.20;18.10;;;;;;;-0.25;100.00;101465.44;10463980;28;20220;-66
2021/12/12 06:18:26;;;;;;;42.53;19.00;;;;;;;-0.22;100.00;101480.91;10463410;28;20213;-66
2021/12/12 06:23:30;;;;;;;47.63;21.73;;;;;;;-0.15;100.00;101482.06;10463432;28;20244;-64
2021/12/12 06:28:38;;;;;;;46.90;21.10;;;;;;;-0.14;100.00;101481.28;10462359;28;20234;-66
2021/12/12 06:33:42;;;;;;;55.00;22.47;;;;;;;-0.24;100.00;101486.69;10461939;28;20225;-66
2021/12/12 06:38:49;;;;;;;40.00;20.97;;;;;;;-0.19;100.00;101477.63;10461280;28;20216;-61
2021/12/12 06:43:56;;;;;;;54.50;24.17;;;;;;;-0.25;100.00;101479.84;10461254;28;20300;-63
2021/12/12 06:49:00;;;;;;;49.53;24.20;;;;;;;-0.14;100.00;101484.69;10461399;28;20566;-63
2021/12/12 06:54:04;;;;;;;45.37;22.93;;;;;;;-0.05;100.00;101487.72;10461202;28;20760;-66
2021/12/12 06:59:09;;;;;;;45.03;19.63;;;;;;;0.07;100.00;101482.34;10460884;28;20647;-65
2021/12/12 07:04:15;;;;;;;52.97;20.83;;;;;;;0.06;100.00;101489.91;10460705;28;20216;-63
2021/12/12 07:09:19;;;;;;;46.17;22.10;;;;;;;0.09;100.00;101498.59;10461327;28;20291;-68
2021/12/12 07:14:24;;;;;;;54.07;22.70;;;;;;;0.11;100.00;101501.22;10460304;28;20254;-65
2021/12/12 07:19:28;;;;;;;51.63;22.93;;;;;;;0.12;100.00;101506.44;10459920;28;20227;-64
2021/12/12 07:24:32;;;;;;;47.93;22.07;;;;;;;0.21;100.00;101513.66;10459346;28;20304;-65
2021/12/12 07:29:37;;;;;;;52.93;24.83;;;;;;;0.17;100.00;101517.75;10459292;28;20224;-63
2021/12/12 07:34:40;;;;;;;54.67;25.43;;;;;;;0.03;100.00;101525.50;10458863;28;20227;-64
2021/12/12 07:39:45;;;;;;;69.63;27.50;;;;;;;0.19;100.00;101530.56;10459165;28;20233;-63
2021/12/12 07:44:50;;;;;;;67.73;27.67;;;;;;;0.03;100.00;101531.47;10458600;28;20239;-68
2021/12/12 07:49:53;;;;;;;69.33;28.53;;;;;;;0.06;100.00;101539.28;10457844;28;20219;-67
2021/12/12 07:54:58;;;;;;;68.93;27.40;;;;;;;0.07;100.00;101551.22;10458255;28;20228;-62
2021/12/12 08:00:09;;;;;;;63.03;25.07;;;;;;;0.08;100.00;101552.13;10458644;28;20227;-66
2021/12/12 08:05:14;;;;;;;77.27;29.27;;;;;;;0.05;100.00;101568.16;10457891;28;20219;-63
2021/12/12 08:10:18;;;;;;;65.90;27.33;;;;;;;-0.05;100.00;101566.81;10457733;28;20219;-66
2021/12/12 08:15:23;;;;;;;76.90;31.50;;;;;;;-0.11;100.00;101576.72;10457455;28;20229;-68
2021/12/12 08:20:27;;;;;;;81.57;29.13;;;;;;;-0.31;100.00;101572.22;10457552;28;20566;-67
2021/12/12 08:25:32;;;;;;;82.23;27.13;;;;;;;-0.30;100.00;101576.53;10457647;28;20217;-66
2021/12/12 08:30:38;;;;;;;80.93;31.70;;;;;;;-0.21;100.00;101566.81;10457289;28;20251;-66
2021/12/12 08:35:43;;;;;;;75.60;29.50;;;;;;;-0.34;100.00;101569.53;10455828;28;20217;-66
2021/12/12 08:40:50;;;;;;;83.97;31.37;;;;;;;-0.35;100.00;101583.09;10455144;28;20222;-69
2021/12/12 08:45:59;;;;;;;87.57;31.40;;;;;;;-0.37;100.00;101582.13;10454766;28;20236;-66
2021/12/12 08:51:06;;;;;;;92.10;33.10;;;;;;;-0.24;100.00;101584.50;10454774;28;20293;-63
2021/12/12 08:56:18;;;;;;;89.90;35.17;;;;;;;-0.17;100.00;101585.69;10455407;28;20248;-63
2021/12/12 09:01:23;;;;;;;99.87;35.27;;;;;;;-0.12;100.00;101585.13;10455684;28;20225;-64
2021/12/12 09:06:30;;;;;;;104.70;39.27;;;;;;;-0.05;100.00;101578.66;10463338;28;20231;-64
2021/12/12 09:11:38;;;;;;;120.37;42.93;;;;;;;-0.19;100.00;101582.22;10463038;28;20234;-63
2021/12/12 09:16:46;;;;;;;140.47;50.10;;;;;;;-0.30;100.00;101566.34;10463136;28;20598;-64
2021/12/12 09:21:54;;;;;;;165.90;56.63;;;;;;;-0.36;100.00;101582.97;10462608;28;20295;-66
2021/12/12 09:27:02;;;;;;;152.90;55.67;;;;;;;-0.23;100.00;101578.63;10463010;28;20681;-65
2021/12/12 09:32:12;;;;;;;154.30;57.67;;;;;;;-0.15;100.00;101569.69;10146940;28;9999696;-65
2021/12/12 09:37:20;;;;;;;156.40;60.63;;;;;;;-0.22;100.00;101567.59;10503652;28;20215;-65
2021/12/12 09:42:53;;;;;;;179.03;61.90;;;;;;;-0.37;100.00;101571.91;10503582;28;20240;-65
2021/12/12 09:54:09;;;;;;;155.73;59.10;;;;;;;-0.33;100.00;101558.50;10502898;28;20235;-66
2021/12/12 09:59:21;;;;;;;151.37;53.20;;;;;;;-0.46;100.00;101561.22;10502669;28;20222;-65
2021/12/12 10:04:30;;;;;;;153.07;56.17;;;;;;;-0.52;100.00;101554.94;10502359;28;20219;-65
2021/12/12 10:09:38;;;;;;;139.77;53.97;;;;;;;-0.59;100.00;101553.75;10502585;28;20732;-63
2021/12/12 10:14:49;;;;;;;141.83;53.20;;;;;;;-0.68;100.00;101543.03;10501906;28;20550;-65
2021/12/12 10:20:02;;;;;;;131.90;49.93;;;;;;;-0.81;100.00;101539.75;10501989;28;20212;-65
2021/12/12 10:25:10;;;;;;;136.40;51.20;;;;;;;-0.89;100.00;101546.97;10501974;28;20238;-64
2021/12/12 10:30:17;;;;;;;120.17;45.00;;;;;;;-1.04;100.00;101550.38;10481465;28;20553;-66
2021/12/12 10:35:26;;;;;;;130.67;50.10;;;;;;;-1.10;100.00;101540.72;10460482;28;20231;-65
2021/12/12 10:40:35;;;;;;;120.77;46.73;;;;;;;-1.00;100.00;101542.97;10460079;28;20279;-66
2021/12/12 10:45:42;;;;;;;127.00;50.13;;;;;;;-0.86;100.00;101536.09;10459176;28;20242;-65
2021/12/12 10:50:56;;;;;;;110.47;43.27;;;;;;;-0.92;100.00;101536.63;10460360;28;20642;-66
2021/12/12 10:56:06;;;;;;;96.40;41.30;;;;;;;-0.60;100.00;101546.88;10461360;28;20546;-65
2021/12/12 11:01:14;;;;;;;114.07;42.97;;;;;;;-0.63;100.00;101549.25;10462662;28;20212;-66
2021/12/12 11:06:26;;;;;;;109.43;43.27;;;;;;;-0.72;100.00;101542.78;10460083;28;20669;-65
2021/12/12 11:11:36;;;;;;;138.30;58.93;;;;;;;-0.75;100.00;101550.28;10459261;28;20227;-67
2021/12/12 11:16:45;;;;;;;90.23;35.63;;;;;;;-0.63;100.00;101556.91;10459671;28;20220;-64
2021/12/12 11:21:53;;;;;;;89.47;36.93;;;;;;;-0.57;100.00;101551.25;10458750;28;20234;-62
2021/12/12 11:27:02;;;;;;;93.07;36.03;;;;;;;-0.58;100.00;101532.53;10457585;28;20216;-64
2021/12/12 11:32:09;;;;;;;99.43;38.30;;;;;;;-0.65;100.00;101532.13;10458641;28;20225;-63
2021/12/12 11:37:37;;;;;;;97.17;36.83;;;;;;;-0.63;100.00;101533.97;10457876;28;20218;-66
2021/12/12 11:42:46;;;;;;;98.70;37.67;;;;;;;-0.62;100.00;101542.50;10457520;28;20204;-63
2021/12/12 11:48:24;;;;;;;90.97;34.00;;;;;;;-0.69;100.00;101541.28;10457718;28;20236;-65
2021/12/12 11:53:39;;;;;;;84.43;34.00;;;;;;;-0.64;100.00;101547.50;10383369;28;20573;-63
2021/12/12 11:58:47;;;;;;;100.37;37.53;;;;;;;-0.64;100.00;101542.41;10457607;28;20219;-65
2021/12/12 12:04:12;;;;;;;92.63;34.10;;;;;;;-0.47;100.00;101550.94;10457718;28;20181;-65
2021/12/12 12:09:40;;;;;;;94.37;35.07;;;;;;;-0.49;100.00;101553.44;10456872;28;20427;-64
2021/12/12 12:15:02;;;;;;;94.33;37.50;;;;;;;-0.85;100.00;101548.91;10456785;28;20216;-64
2021/12/12 12:20:11;;;;;;;100.83;36.07;;;;;;;-0.95;100.00;101546.66;10456470;28;20227;-64
2021/12/12 12:25:24;;;;;;;92.33;36.63;;;;;;;-0.99;100.00;101538.75;10456384;28;20217;-67
2021/12/12 12:31:08;;;;;;;88.83;34.97;;;;;;;-0.93;100.00;101539.94;10456972;28;20296;-64
2021/12/12 12:36:57;;;;;;;88.03;33.57;;;;;;;-0.90;100.00;101540.16;10455465;28;20228;-63
2021/12/12 12:42:43;;;;;;;93.03;33.07;;;;;;;-0.87;100.00;101536.88;10415133;28;20235;-64
2021/12/12 12:48:29;;;;;;;102.30;36.03;;;;;;;-0.80;100.00;101529.66;10414689;28;20319;-64
2021/12/12 12:54:12;;;;;;;93.53;36.43;;;;;;;-0.78;100.00;101529.72;10397484;28;20228;-67
2021/12/12 12:59:39;;;;;;;90.73;35.20;;;;;;;-0.86;100.00;101521.66;10414512;28;20456;-63
2021/12/12 13:05:01;;;;;;;87.03;33.87;;;;;;;-0.86;100.00;101529.31;10414305;28;20217;-64
2021/12/12 13:10:08;;;;;;;91.23;35.77;;;;;;;-0.99;100.00;101533.66;10414348;28;20736;-64
2021/12/12 13:15:31;;;;;;;87.97;34.77;;;;;;;-0.91;100.00;101517.09;10414023;28;20667;-64
2021/12/12 13:20:48;;;;;;;86.50;31.57;;;;;;;-0.87;100.00;101527.56;10433045;28;20224;-68
2021/12/12 13:25:59;;;;;;;91.87;32.93;;;;;;;-0.77;100.00;101526.38;10451104;28;20283;-68
2021/12/12 13:31:16;;;;;;;80.33;31.23;;;;;;;-0.78;100.00;101524.63;10452137;28;20195;-67
2021/12/12 13:36:44;;;;;;;81.43;30.57;;;;;;;-0.69;100.00;101535.31;10450437;28;20572;-69
2021/12/12 13:41:56;;;;;;;79.63;30.37;;;;;;;-0.69;100.00;101525.13;10447762;28;20221;-66
2021/12/12 13:47:14;;;;;;;78.43;30.47;;;;;;;-0.72;100.00;101541.13;10439252;28;20224;-69
2021/12/12 13:52:29;;;;;;;75.17;28.37;;;;;;;-0.69;100.00;101535.31;10456150;28;20560;-66
2021/12/12 13:57:37;;;;;;;68.10;27.70;;;;;;;-0.71;100.00;101537.78;10454322;28;20574;-67
2021/12/12 14:02:46;;;;;;;76.53;28.03;;;;;;;-0.59;100.00;101535.91;10454660;28;20239;-67
2021/12/12 14:07:53;;;;;;;71.27;29.00;;;;;;;-0.65;100.00;101533.00;10456687;28;20201;-67
2021/12/12 14:13:05;;;;;;;69.63;28.37;;;;;;;-0.69;100.00;101538.72;10456287;28;20220;-69
2021/12/12 14:18:11;;;;;;;73.83;27.77;;;;;;;-0.68;100.00;101540.50;10457445;28;20208;-67
2021/12/12 14:23:18;;;;;;;75.80;31.90;;;;;;;-0.67;100.00;101538.81;10457906;28;20973;-64
2021/12/12 14:28:24;;;;;;;81.97;30.93;;;;;;;-0.60;100.00;101536.66;10457248;28;20271;-67
2021/12/12 14:33:34;;;;;;;73.80;28.40;;;;;;;-0.68;100.00;101550.69;10456317;28;20216;-66
2021/12/12 14:38:38;;;;;;;80.43;30.67;;;;;;;-0.52;100.00;101560.88;10456443;28;20280;-66
2021/12/12 14:43:46;;;;;;;94.17;34.50;;;;;;;-0.61;100.00;101557.88;10450091;28;20205;-70
2021/12/12 14:48:55;;;;;;;95.93;38.30;;;;;;;-0.73;100.00;101551.22;10455115;28;20237;-63
2021/12/12 14:54:18;;;;;;;101.13;38.53;;;;;;;-0.75;100.00;101566.44;10453843;28;20231;-63
2021/12/12 14:59:26;;;;;;;99.90;40.13;;;;;;;-0.80;100.00;101569.53;10455798;28;20212;-65
2021/12/12 15:04:34;;;;;;;105.80;40.20;;;;;;;-0.68;100.00;101563.44;10453758;28;20201;-65
2021/12/12 15:09:44;;;;;;;116.13;41.20;;;;;;;-0.63;100.00;101576.41;10450593;28;20211;-68
2021/12/12 15:14:49;;;;;;;125.77;40.70;;;;;;;-0.61;100.00;101565.53;10448575;28;20217;-66
2021/12/12 15:19:57;;;;;;;111.07;40.37;;;;;;;-0.63;100.00;101566.22;10453458;28;20211;-66
2021/12/12 15:25:03;;;;;;;118.57;39.67;;;;;;;-0.53;100.00;101571.88;10456054;28;20225;-67
2021/12/12 15:30:09;;;;;;;111.53;38.17;;;;;;;-0.55;100.00;101570.94;10456024;28;20203;-66
2021/12/12 15:35:18;;;;;;;112.83;38.43;;;;;;;-0.61;100.00;101570.63;10453996;28;20243;-68
2021/12/12 15:40:26;;;;;;;134.83;49.07;;;;;;;-0.58;100.00;101580.09;10456490;28;20278;-67
2021/12/12 15:45:34;;;;;;;115.80;41.23;;;;;;;-0.48;100.00;101583.22;10454368;28;20568;-69
2021/12/12 15:50:40;;;;;;;116.10;44.37;;;;;;;-0.51;100.00;101571.97;10454380;28;20220;-66
2021/12/12 15:55:49;;;;;;;118.27;43.20;;;;;;;-0.47;100.00;101584.97;10456489;28;20225;-64
2021/12/12 16:00:58;;;;;;;124.27;43.40;;;;;;;-0.47;100.00;101581.53;10456481;28;20235;-67
2021/12/12 16:06:05;;;;;;;110.23;39.80;;;;;;;-0.40;100.00;101583.63;10459415;28;20658;-65
2021/12/12 16:11:16;;;;;;;125.20;43.67;;;;;;;-0.37;100.00;101578.69;10443942;28;20390;-66
2021/12/12 16:16:23;;;;;;;116.23;42.73;;;;;;;-0.46;100.00;101580.75;10418524;28;20247;-68
2021/12/12 16:21:30;;;;;;;115.10;43.53;;;;;;;-0.39;100.00;101587.91;10439526;28;20677;-66
2021/12/12 16:26:38;;;;;;;127.53;43.40;;;;;;;-0.47;100.00;101586.66;10439753;28;20300;-68
2021/12/12 16:31:46;;;;;;;111.57;42.47;;;;;;;-0.40;100.00;101581.94;10418225;28;20587;-66
2021/12/12 16:36:55;;;;;;;116.50;41.03;;;;;;;-0.44;100.00;101585.13;10418420;28;20233;-64
2021/12/12 16:42:02;;;;;;;114.93;42.67;;;;;;;-0.43;100.00;101586.88;10414514;28;20691;-67
2021/12/12 16:47:09;;;;;;;108.00;40.73;;;;;;;-0.39;100.00;101587.91;10414596;28;20239;-65
2021/12/12 16:52:16;;;;;;;106.20;40.23;;;;;;;-0.36;100.00;101582.97;10414415;28;20221;-63
2021/12/12 16:57:23;;;;;;;107.63;38.73;;;;;;;-0.31;100.00;101582.41;10111357;28;9999679;-70
2021/12/12 17:02:31;;;;;;;94.03;37.80;;;;;;;-0.41;100.00;101580.19;10496689;28;20220;-68
2021/12/12 17:07:47;;;;;;;103.67;36.97;;;;;;;-0.48;100.00;101588.31;10496831;28;20216;-68
2021/12/12 17:12:53;;;;;;;103.60;37.70;;;;;;;-0.41;100.00;101592.06;10497014;28;20288;-69
2021/12/12 17:18:02;;;;;;;108.97;40.03;;;;;;;-0.42;100.00;101596.31;10496734;28;20315;-65
2021/12/12 17:23:14;;;;;;;96.67;37.00;;;;;;;-0.38;100.00;101595.66;10498632;28;20218;-67
2021/12/12 17:28:21;;;;;;;115.23;43.37;;;;;;;-0.43;100.00;101593.66;10504840;28;20218;-67
2021/12/12 17:33:29;;;;;;;97.20;36.80;;;;;;;-0.39;100.00;101591.34;10504499;28;20295;-68
2021/12/12 17:38:40;;;;;;;94.70;35.03;;;;;;;-0.50;100.00;101578.84;10503961;28;20298;-68
2021/12/12 17:44:23;;;;;;;95.80;36.53;;;;;;;-0.46;100.00;101579.06;10482715;28;20780;-68
2021/12/12 17:49:56;;;;;;;96.20;33.83;;;;;;;-0.51;100.00;101582.16;10462529;28;20549;-66
2021/12/12 17:55:09;;;;;;;96.50;34.97;;;;;;;-0.48;100.00;101578.09;10434074;28;20232;-67
2021/12/12 18:00:20;;;;;;;101.68;42.55;;;;;;;-0.46;100.00;101570.53;10457430;28;20415;-69
2021/12/12 18:05:26;;;;;;;99.40;37.10;;;;;;;-0.46;100.00;101568.88;10461654;28;20554;-68
2021/12/12 18:10:42;;;;;;;97.10;35.73;;;;;;;-0.44;100.00;101567.28;10461713;28;20301;-67
2021/12/12 18:15:52;;;;;;;94.43;34.67;;;;;;;-0.47;100.00;101563.69;10461172;28;20231;-66
2021/12/12 18:20:59;;;;;;;104.70;35.67;;;;;;;-0.42;100.00;101568.25;10441330;28;20210;-67
2021/12/12 18:26:07;;;;;;;93.80;33.03;;;;;;;-0.43;100.00;101569.03;10455699;28;20256;-68
2021/12/12 18:31:15;;;;;;;92.37;33.97;;;;;;;-0.49;100.00;101566.16;10460641;28;20223;-66
2021/12/12 18:36:21;;;;;;;82.33;31.50;;;;;;;-0.61;100.00;101574.81;10458343;28;20223;-67
2021/12/12 18:41:49;;;;;;;86.73;30.67;;;;;;;-0.65;100.00;101576.34;10460279;28;20216;-68
2021/12/12 18:46:59;;;;;;;84.13;32.03;;;;;;;-0.67;100.00;101574.47;10459971;28;20665;-67
2021/12/12 18:52:11;;;;;;;87.63;30.37;;;;;;;-0.77;100.00;101578.22;10459734;28;20227;-66
2021/12/12 18:57:21;;;;;;;73.63;27.73;;;;;;;-0.68;100.00;101583.81;10482927;28;20236;-67
2021/12/12 19:02:28;;;;;;;78.80;29.13;;;;;;;-0.54;100.00;101582.00;10500960;28;20219;-65
2021/12/12 19:07:32;;;;;;;74.30;27.73;;;;;;;-0.78;100.00;101586.69;10501055;28;20680;-65
2021/12/12 19:12:39;;;;;;;82.57;29.53;;;;;;;-0.87;100.00;101575.97;10500059;28;20266;-67
2021/12/12 19:17:51;;;;;;;79.37;29.13;;;;;;;-0.83;100.00;101583.00;10417779;28;20217;-65
2021/12/12 19:22:59;;;;;;;75.73;29.37;;;;;;;-0.85;100.00;101591.34;10417477;28;20732;-65
2021/12/12 19:28:06;;;;;;;65.00;27.53;;;;;;;-0.95;100.00;101573.81;10436032;28;20253;-65
2021/12/12 19:33:17;;;;;;;82.47;26.90;;;;;;;-0.85;100.00;101579.50;10417261;28;20228;-67
2021/12/12 19:38:25;;;;;;;74.60;27.23;;;;;;;-0.78;100.00;101588.34;10417023;28;20229;-66
2021/12/12 19:43:33;;;;;;;89.13;30.83;;;;;;;-0.83;100.00;101590.66;10416725;28;20210;-66
2021/12/12 19:48:39;;;;;;;79.03;28.23;;;;;;;-0.83;100.00;101597.41;10415868;28;20233;-66
2021/12/12 19:53:46;;;;;;;77.60;29.57;;;;;;;-0.75;100.00;101602.13;10416193;28;20220;-65
2021/12/12 19:58:54;;;;;;;89.77;30.00;;;;;;;-0.87;100.00;101593.81;10488594;28;20220;-67
2021/12/12 20:04:01;;;;;;;82.77;28.53;;;;;;;-0.84;100.00;101598.19;10499517;28;20311;-67
2021/12/12 20:09:08;;;;;;;89.93;29.03;;;;;;;-0.82;100.00;101591.50;10498536;28;20219;-66
2021/12/12 20:14:16;;;;;;;83.80;28.73;;;;;;;-0.86;100.00;101593.00;10498482;28;20650;-65
2021/12/12 20:19:23;;;;;;;81.77;30.83;;;;;;;-0.80;100.00;101606.09;10498286;28;20215;-67
2021/12/12 20:24:30;;;;;;;91.87;30.63;;;;;;;-0.77;100.00;101613.91;10498026;28;20228;-67
2021/12/12 20:29:40;;;;;;;93.93;31.20;;;;;;;-0.79;100.00;101625.66;10497822;28;20545;-66
2021/12/12 20:34:48;;;;;;;85.27;29.50;;;;;;;-0.64;100.00;101628.19;10497418;28;20234;-67
2021/12/12 20:39:54;;;;;;;88.90;29.30;;;;;;;-0.61;100.00;101618.16;10497552;28;20645;-66
2021/12/12 20:45:07;;;;;;;88.90;32.03;;;;;;;-0.61;100.00;101615.59;10497400;28;20627;-65
2021/12/12 20:50:19;;;;;;;95.93;32.20;;;;;;;-0.62;100.00;101617.28;10462206;28;20720;-67
2021/12/12 20:55:30;;;;;;;96.93;34.83;;;;;;;-0.63;100.00;101612.97;10463144;28;20840;-71
2021/12/12 21:00:37;;;;;;;95.13;33.30;;;;;;;-0.65;100.00;101603.47;10496965;28;20599;-68
2021/12/12 21:05:46;;;;;;;100.10;34.43;;;;;;;-0.66;100.00;101587.34;10451774;28;20235;-65
2021/12/12 21:10:51;;;;;;;97.63;32.30;;;;;;;-0.56;100.00;101584.47;10414283;28;20313;-66
2021/12/12 21:15:59;;;;;;;94.40;33.03;;;;;;;-0.49;100.00;101583.13;10414193;28;20235;-66
2021/12/12 21:21:08;;;;;;;93.40;30.30;;;;;;;-0.38;100.00;101589.69;10414109;28;20223;-67
2021/12/12 21:26:14;;;;;;;84.13;28.23;;;;;;;-0.43;100.00;101597.06;10414372;28;20260;-66
2021/12/12 21:31:24;;;;;;;84.47;28.20;;;;;;;-0.37;100.00;101606.72;10414463;28;20221;-66
2021/12/12 21:36:35;;;;;;;92.20;28.23;;;;;;;-0.39;100.00;101613.41;10413692;28;20225;-66
2021/12/12 21:41:50;;;;;;;89.57;29.13;;;;;;;-0.36;100.00;101609.34;10414044;28;20722;-66
2021/12/12 21:46:56;;;;;;;95.60;31.03;;;;;;;-0.50;100.00;101619.63;10413444;28;20240;-66
2021/12/12 21:52:00;;;;;;;90.60;31.13;;;;;;;-0.61;100.00;101611.41;10413607;28;20562;-67
2021/12/12 21:57:04;;;;;;;98.73;32.20;;;;;;;-0.60;100.00;101620.78;10456705;28;20238;-67
2021/12/12 22:02:10;;;;;;;97.40;32.93;;;;;;;-0.56;100.00;101617.63;10461475;28;20699;-65
2021/12/12 22:07:19;;;;;;;96.17;31.07;;;;;;;-0.58;100.00;101605.56;10413574;28;20298;-66
2021/12/12 22:12:25;;;;;;;100.27;31.23;;;;;;;-0.60;100.00;101613.13;10418448;28;20653;-67
2021/12/12 22:17:32;;;;;;;98.80;32.00;;;;;;;-0.60;100.00;101613.13;10421467;28;20227;-65
2021/12/12 22:22:39;;;;;;;95.80;31.30;;;;;;;-0.70;100.00;101585.41;10420427;28;20248;-68
2021/12/12 22:27:45;;;;;;;95.13;29.27;;;;;;;-0.61;100.00;101590.13;10419958;28;20255;-67
2021/12/12 22:32:53;;;;;;;101.20;31.10;;;;;;;-0.62;100.00;101578.19;10419876;28;20228;-68
2021/12/12 22:38:01;;;;;;;91.73;29.53;;;;;;;-0.58;100.00;101586.06;10419076;28;20288;-66
2021/12/12 22:43:07;;;;;;;89.97;29.00;;;;;;;-0.58;100.00;101595.38;10419580;28;20222;-67
2021/12/12 22:48:17;;;;;;;103.07;31.50;;;;;;;-0.63;100.00;101597.69;10419106;28;20245;-67
2021/12/12 22:53:25;;;;;;;108.13;30.13;;;;;;;-0.84;100.00;101591.41;10419123;28;20300;-65
2021/12/12 22:58:32;;;;;;;125.97;40.88;;;;;;;-0.66;100.00;101617.03;10483517;28;20518;-64
2021/12/12 23:03:37;;;;;;;113.77;33.90;;;;;;;-0.68;100.00;101599.13;10501514;28;20219;-67
2021/12/12 23:08:43;;;;;;;111.33;34.33;;;;;;;-0.70;100.00;101602.34;10501126;28;20226;-65